sensor_id;sensor_type;location;lat;lon;timestamp;pressure;altitude;pressure_sealevel;temperature
19666;BMP180;9980;51.020;7.772;2023-04-12T00:00:06;96753.00;;;10.00
19666;BMP180;9980;51.020;7.772;2023-04-12T00:02:38;96749.00;;;10.00
19666;BMP180;9980;51.020;7.772;2023-04-12T00:05:05;96750.00;;;10.00
19666;BMP180;9980;51.020;7.772;2023-04-12T00:07:31;96756.00;;;10.00
19666;BMP180;9980;51.020;7.772;2023-04-12T00:09:58;96745.00;;;10.00
19666;BMP180;9980;51.020;7.772;2023-04-12T00:12:24;96729.00;;;10.00
19666;BMP180;9980;51.020;7.772;2023-04-12T00:14:50;96716.00;;;10.00
19666;BMP180;9980;51.020;7.772;2023-04-12T00:17:17;96706.00;;;10.00
19666;BMP180;9980;51.020;7.772;2023-04-12T00:19:44;96711.00;;;10.10
19666;BMP180;9980;51.020;7.772;2023-04-12T00:22:11;96693.00;;;10.10
19666;BMP180;9980;51.020;7.772;2023-04-12T00:24:38;96700.00;;;10.10
19666;BMP180;9980;51.020;7.772;2023-04-12T00:27:06;96707.00;;;10.10
19666;BMP180;9980;51.020;7.772;2023-04-12T00:29:32;96704.00;;;10.10
19666;BMP180;9980;51.020;7.772;2023-04-12T00:31:59;96695.00;;;10.10
19666;BMP180;9980;51.020;7.772;2023-04-12T00:34:27;96696.00;;;10.20
19666;BMP180;9980;51.020;7.772;2023-04-12T00:36:54;96675.00;;;10.20
19666;BMP180;9980;51.020;7.772;2023-04-12T00:39:20;96677.00;;;10.20
19666;BMP180;9980;51.020;7.772;2023-04-12T00:41:47;96676.00;;;10.20
19666;BMP180;9980;51.020;7.772;2023-04-12T00:44:13;96689.00;;;10.20
19666;BMP180;9980;51.020;7.772;2023-04-12T00:46:39;96674.00;;;10.30
19666;BMP180;9980;51.020;7.772;2023-04-12T00:49:07;96666.00;;;10.30
19666;BMP180;9980;51.020;7.772;2023-04-12T00:51:33;96664.00;;;10.30
19666;BMP180;9980;51.020;7.772;2023-04-12T00:53:59;96658.00;;;10.40
19666;BMP180;9980;51.020;7.772;2023-04-12T00:56:27;96657.00;;;10.40
19666;BMP180;9980;51.020;7.772;2023-04-12T00:58:55;96663.00;;;10.50
19666;BMP180;9980;51.020;7.772;2023-04-12T01:01:22;96671.00;;;10.50
19666;BMP180;9980;51.020;7.772;2023-04-12T01:03:51;96657.00;;;10.60
19666;BMP180;9980;51.020;7.772;2023-04-12T01:15:31;96639.00;;;10.70
19666;BMP180;9980;51.020;7.772;2023-04-12T01:18:18;96620.00;;;10.70
19666;BMP180;9980;51.020;7.772;2023-04-12T01:21:00;96615.00;;;10.80
19666;BMP180;9980;51.020;7.772;2023-04-12T01:26:44;96618.00;;;10.90
19666;BMP180;9980;51.020;7.772;2023-04-12T01:29:15;96618.00;;;10.90
19666;BMP180;9980;51.020;7.772;2023-04-12T01:31:59;96614.00;;;10.90
19666;BMP180;9980;51.020;7.772;2023-04-12T01:34:30;96603.00;;;11.00
19666;BMP180;9980;51.020;7.772;2023-04-12T01:37:01;96607.00;;;11.00
19666;BMP180;9980;51.020;7.772;2023-04-12T01:39:29;96592.00;;;11.00
19666;BMP180;9980;51.020;7.772;2023-04-12T01:41:57;96598.00;;;11.00
19666;BMP180;9980;51.020;7.772;2023-04-12T01:44:24;96574.00;;;11.10
19666;BMP180;9980;51.020;7.772;2023-04-12T01:46:51;96572.00;;;11.10
19666;BMP180;9980;51.020;7.772;2023-04-12T01:49:20;96578.00;;;11.10
19666;BMP180;9980;51.020;7.772;2023-04-12T01:51:59;96570.00;;;11.10
19666;BMP180;9980;51.020;7.772;2023-04-12T01:54:36;96570.00;;;11.10
19666;BMP180;9980;51.020;7.772;2023-04-12T01:57:04;96564.00;;;11.10
19666;BMP180;9980;51.020;7.772;2023-04-12T01:59:44;96548.00;;;11.10
19666;BMP180;9980;51.020;7.772;2023-04-12T02:02:12;96560.00;;;11.10
19666;BMP180;9980;51.020;7.772;2023-04-12T02:04:40;96563.00;;;11.20
19666;BMP180;9980;51.020;7.772;2023-04-12T02:07:07;96546.00;;;11.10
19666;BMP180;9980;51.020;7.772;2023-04-12T02:09:38;96539.00;;;11.10
19666;BMP180;9980;51.020;7.772;2023-04-12T02:12:05;96538.00;;;11.20
19666;BMP180;9980;51.020;7.772;2023-04-12T02:14:32;96531.00;;;11.20
19666;BMP180;9980;51.020;7.772;2023-04-12T02:16:58;96533.00;;;11.20
19666;BMP180;9980;51.020;7.772;2023-04-12T02:19:28;96521.00;;;11.20
19666;BMP180;9980;51.020;7.772;2023-04-12T02:21:54;96503.00;;;11.20
19666;BMP180;9980;51.020;7.772;2023-04-12T02:24:21;96495.00;;;11.20
19666;BMP180;9980;51.020;7.772;2023-04-12T02:26:47;96491.00;;;11.20
19666;BMP180;9980;51.020;7.772;2023-04-12T02:29:16;96478.00;;;11.20
19666;BMP180;9980;51.020;7.772;2023-04-12T02:31:45;96490.00;;;11.20
19666;BMP180;9980;51.020;7.772;2023-04-12T02:34:15;96474.00;;;11.20
19666;BMP180;9980;51.020;7.772;2023-04-12T02:36:48;96485.00;;;11.20
19666;BMP180;9980;51.020;7.772;2023-04-12T02:39:15;96471.00;;;11.20
19666;BMP180;9980;51.020;7.772;2023-04-12T02:41:49;96457.00;;;11.20
19666;BMP180;9980;51.020;7.772;2023-04-12T02:44:16;96446.00;;;11.20
19666;BMP180;9980;51.020;7.772;2023-04-12T02:46:48;96435.00;;;11.20
19666;BMP180;9980;51.020;7.772;2023-04-12T02:49:15;96429.00;;;11.20
19666;BMP180;9980;51.020;7.772;2023-04-12T02:51:41;96427.00;;;11.20
19666;BMP180;9980;51.020;7.772;2023-04-12T02:54:09;96426.00;;;11.20
19666;BMP180;9980;51.020;7.772;2023-04-12T02:56:49;96433.00;;;11.20
19666;BMP180;9980;51.020;7.772;2023-04-12T02:59:32;96445.00;;;11.20
19666;BMP180;9980;51.020;7.772;2023-04-12T03:02:27;96426.00;;;11.20
19666;BMP180;9980;51.020;7.772;2023-04-12T03:04:59;96413.00;;;11.20
19666;BMP180;9980;51.020;7.772;2023-04-12T03:07:37;96426.00;;;11.20
19666;BMP180;9980;51.020;7.772;2023-04-12T03:10:05;96408.00;;;11.20
19666;BMP180;9980;51.020;7.772;2023-04-12T03:12:35;96409.00;;;11.20
19666;BMP180;9980;51.020;7.772;2023-04-12T03:15:12;96387.00;;;11.20
19666;BMP180;9980;51.020;7.772;2023-04-12T03:17:40;96373.00;;;11.20
19666;BMP180;9980;51.020;7.772;2023-04-12T03:20:08;96373.00;;;11.20
19666;BMP180;9980;51.020;7.772;2023-04-12T03:22:38;96359.00;;;11.20
19666;BMP180;9980;51.020;7.772;2023-04-12T03:25:08;96355.00;;;11.20
19666;BMP180;9980;51.020;7.772;2023-04-12T03:27:38;96364.00;;;11.20
19666;BMP180;9980;51.020;7.772;2023-04-12T03:30:06;96349.00;;;11.20
19666;BMP180;9980;51.020;7.772;2023-04-12T03:32:35;96344.00;;;11.20
19666;BMP180;9980;51.020;7.772;2023-04-12T03:35:02;96346.00;;;11.20
19666;BMP180;9980;51.020;7.772;2023-04-12T03:37:30;96322.00;;;11.20
19666;BMP180;9980;51.020;7.772;2023-04-12T03:39:56;96324.00;;;11.20
19666;BMP180;9980;51.020;7.772;2023-04-12T03:42:24;96329.00;;;11.20
19666;BMP180;9980;51.020;7.772;2023-04-12T03:45:06;96299.00;;;11.20
19666;BMP180;9980;51.020;7.772;2023-04-12T03:47:33;96316.00;;;11.20
19666;BMP180;9980;51.020;7.772;2023-04-12T03:50:05;96304.00;;;11.20
19666;BMP180;9980;51.020;7.772;2023-04-12T03:52:39;96301.00;;;11.20
19666;BMP180;9980;51.020;7.772;2023-04-12T03:55:07;96276.00;;;11.20
19666;BMP180;9980;51.020;7.772;2023-04-12T03:57:34;96277.00;;;11.20
19666;BMP180;9980;51.020;7.772;2023-04-12T04:00:02;96274.00;;;11.20
19666;BMP180;9980;51.020;7.772;2023-04-12T04:02:43;96262.00;;;11.20
19666;BMP180;9980;51.020;7.772;2023-04-12T04:05:10;96262.00;;;11.20
19666;BMP180;9980;51.020;7.772;2023-04-12T04:07:38;96255.00;;;11.20
19666;BMP180;9980;51.020;7.772;2023-04-12T04:10:05;96263.00;;;11.20
19666;BMP180;9980;51.020;7.772;2023-04-12T04:12:35;96267.00;;;11.20
19666;BMP180;9980;51.020;7.772;2023-04-12T04:15:02;96257.00;;;11.20
19666;BMP180;9980;51.020;7.772;2023-04-12T04:17:30;96247.00;;;11.20
19666;BMP180;9980;51.020;7.772;2023-04-12T04:19:57;96253.00;;;11.20
19666;BMP180;9980;51.020;7.772;2023-04-12T04:22:23;96231.00;;;11.20
19666;BMP180;9980;51.020;7.772;2023-04-12T04:24:51;96230.00;;;11.20
19666;BMP180;9980;51.020;7.772;2023-04-12T04:27:18;96221.00;;;11.20
19666;BMP180;9980;51.020;7.772;2023-04-12T04:29:47;96208.00;;;11.20
19666;BMP180;9980;51.020;7.772;2023-04-12T04:32:15;96199.00;;;11.20
19666;BMP180;9980;51.020;7.772;2023-04-12T04:34:43;96204.00;;;11.20
19666;BMP180;9980;51.020;7.772;2023-04-12T04:37:14;96197.00;;;11.20
19666;BMP180;9980;51.020;7.772;2023-04-12T04:39:43;96201.00;;;11.20
19666;BMP180;9980;51.020;7.772;2023-04-12T04:42:11;96210.00;;;11.20
19666;BMP180;9980;51.020;7.772;2023-04-12T04:44:39;96190.00;;;11.20
19666;BMP180;9980;51.020;7.772;2023-04-12T04:47:08;96175.00;;;11.20
19666;BMP180;9980;51.020;7.772;2023-04-12T04:49:37;96164.00;;;11.20
19666;BMP180;9980;51.020;7.772;2023-04-12T04:52:19;96169.00;;;11.20
19666;BMP180;9980;51.020;7.772;2023-04-12T04:54:47;96157.00;;;11.20
19666;BMP180;9980;51.020;7.772;2023-04-12T04:57:13;96157.00;;;11.20
19666;BMP180;9980;51.020;7.772;2023-04-12T04:59:40;96149.00;;;11.20
19666;BMP180;9980;51.020;7.772;2023-04-12T05:02:14;96145.00;;;11.20
19666;BMP180;9980;51.020;7.772;2023-04-12T05:04:42;96147.00;;;11.10
19666;BMP180;9980;51.020;7.772;2023-04-12T05:07:11;96158.00;;;11.10
19666;BMP180;9980;51.020;7.772;2023-04-12T05:09:42;96134.00;;;11.20
19666;BMP180;9980;51.020;7.772;2023-04-12T05:12:08;96132.00;;;11.20
19666;BMP180;9980;51.020;7.772;2023-04-12T05:14:35;96129.00;;;11.20
19666;BMP180;9980;51.020;7.772;2023-04-12T05:17:16;96128.00;;;11.10
19666;BMP180;9980;51.020;7.772;2023-04-12T05:19:42;96120.00;;;11.10
19666;BMP180;9980;51.020;7.772;2023-04-12T05:22:10;96129.00;;;11.10
19666;BMP180;9980;51.020;7.772;2023-04-12T05:24:36;96124.00;;;11.10
19666;BMP180;9980;51.020;7.772;2023-04-12T05:27:03;96118.00;;;11.10
19666;BMP180;9980;51.020;7.772;2023-04-12T05:29:29;96108.00;;;11.10
19666;BMP180;9980;51.020;7.772;2023-04-12T05:31:57;96108.00;;;11.10
19666;BMP180;9980;51.020;7.772;2023-04-12T05:34:25;96103.00;;;11.10
19666;BMP180;9980;51.020;7.772;2023-04-12T05:36:54;96096.00;;;11.20
19666;BMP180;9980;51.020;7.772;2023-04-12T05:39:21;96099.00;;;11.20
19666;BMP180;9980;51.020;7.772;2023-04-12T05:41:49;96094.00;;;11.20
19666;BMP180;9980;51.020;7.772;2023-04-12T05:44:15;96102.00;;;11.20
19666;BMP180;9980;51.020;7.772;2023-04-12T05:46:41;96093.00;;;11.20
19666;BMP180;9980;51.020;7.772;2023-04-12T05:49:08;96096.00;;;11.20
19666;BMP180;9980;51.020;7.772;2023-04-12T05:51:34;96086.00;;;11.20
19666;BMP180;9980;51.020;7.772;2023-04-12T05:54:12;96085.00;;;11.20
19666;BMP180;9980;51.020;7.772;2023-04-12T05:56:39;96085.00;;;11.20
19666;BMP180;9980;51.020;7.772;2023-04-12T05:59:05;96072.00;;;11.20
19666;BMP180;9980;51.020;7.772;2023-04-12T06:01:32;96075.00;;;11.20
19666;BMP180;9980;51.020;7.772;2023-04-12T06:04:00;96075.00;;;11.20
19666;BMP180;9980;51.020;7.772;2023-04-12T06:06:31;96075.00;;;11.20
19666;BMP180;9980;51.020;7.772;2023-04-12T06:08:58;96085.00;;;11.30
19666;BMP180;9980;51.020;7.772;2023-04-12T06:11:27;96075.00;;;11.30
19666;BMP180;9980;51.020;7.772;2023-04-12T06:13:54;96063.00;;;11.30
19666;BMP180;9980;51.020;7.772;2023-04-12T06:16:21;96068.00;;;11.30
19666;BMP180;9980;51.020;7.772;2023-04-12T06:18:47;96061.00;;;11.30
19666;BMP180;9980;51.020;7.772;2023-04-12T06:21:14;96063.00;;;11.30
19666;BMP180;9980;51.020;7.772;2023-04-12T06:23:41;96057.00;;;11.30
19666;BMP180;9980;51.020;7.772;2023-04-12T06:26:08;96048.00;;;11.40
19666;BMP180;9980;51.020;7.772;2023-04-12T06:28:34;96053.00;;;11.40
19666;BMP180;9980;51.020;7.772;2023-04-12T06:31:00;96056.00;;;11.40
19666;BMP180;9980;51.020;7.772;2023-04-12T06:33:31;96041.00;;;11.40
19666;BMP180;9980;51.020;7.772;2023-04-12T06:35:57;96041.00;;;11.40
19666;BMP180;9980;51.020;7.772;2023-04-12T06:38:25;96038.00;;;11.40
19666;BMP180;9980;51.020;7.772;2023-04-12T06:40:51;96014.00;;;11.40
19666;BMP180;9980;51.020;7.772;2023-04-12T06:43:17;96028.00;;;11.40
19666;BMP180;9980;51.020;7.772;2023-04-12T06:45:45;96022.00;;;11.40
19666;BMP180;9980;51.020;7.772;2023-04-12T06:48:11;96031.00;;;11.40
19666;BMP180;9980;51.020;7.772;2023-04-12T06:50:38;96012.00;;;11.40
19666;BMP180;9980;51.020;7.772;2023-04-12T06:53:05;96009.00;;;11.40
19666;BMP180;9980;51.020;7.772;2023-04-12T06:55:31;95991.00;;;11.40
19666;BMP180;9980;51.020;7.772;2023-04-12T06:57:57;95987.00;;;11.40
19666;BMP180;9980;51.020;7.772;2023-04-12T07:00:23;95986.00;;;11.40
19666;BMP180;9980;51.020;7.772;2023-04-12T07:02:50;95982.00;;;11.40
19666;BMP180;9980;51.020;7.772;2023-04-12T07:05:16;95970.00;;;11.50
19666;BMP180;9980;51.020;7.772;2023-04-12T07:07:43;95974.00;;;11.50
19666;BMP180;9980;51.020;7.772;2023-04-12T07:10:10;95973.00;;;11.50
19666;BMP180;9980;51.020;7.772;2023-04-12T07:12:36;95961.00;;;11.50
19666;BMP180;9980;51.020;7.772;2023-04-12T07:15:03;95950.00;;;11.50
19666;BMP180;9980;51.020;7.772;2023-04-12T07:17:29;95963.00;;;11.50
19666;BMP180;9980;51.020;7.772;2023-04-12T07:19:56;95964.00;;;11.60
19666;BMP180;9980;51.020;7.772;2023-04-12T07:22:22;95937.00;;;11.60
19666;BMP180;9980;51.020;7.772;2023-04-12T07:24:49;95944.00;;;11.60
19666;BMP180;9980;51.020;7.772;2023-04-12T07:27:16;95928.00;;;11.60
19666;BMP180;9980;51.020;7.772;2023-04-12T07:29:42;95943.00;;;11.60
19666;BMP180;9980;51.020;7.772;2023-04-12T07:32:09;95942.00;;;11.60
19666;BMP180;9980;51.020;7.772;2023-04-12T07:34:36;95935.00;;;11.70
19666;BMP180;9980;51.020;7.772;2023-04-12T07:37:04;95920.00;;;11.70
19666;BMP180;9980;51.020;7.772;2023-04-12T07:39:31;95917.00;;;11.70
19666;BMP180;9980;51.020;7.772;2023-04-12T07:41:59;95930.00;;;11.70
19666;BMP180;9980;51.020;7.772;2023-04-12T07:44:26;95920.00;;;11.70
19666;BMP180;9980;51.020;7.772;2023-04-12T07:46:52;95898.00;;;11.80
19666;BMP180;9980;51.020;7.772;2023-04-12T07:49:18;95906.00;;;11.80
19666;BMP180;9980;51.020;7.772;2023-04-12T07:51:44;95898.00;;;11.80
19666;BMP180;9980;51.020;7.772;2023-04-12T07:54:11;95899.00;;;11.90
19666;BMP180;9980;51.020;7.772;2023-04-12T07:56:38;95903.00;;;11.90
19666;BMP180;9980;51.020;7.772;2023-04-12T07:59:04;95892.00;;;11.90
19666;BMP180;9980;51.020;7.772;2023-04-12T08:01:31;95892.00;;;12.00
19666;BMP180;9980;51.020;7.772;2023-04-12T08:03:57;95893.00;;;12.00
19666;BMP180;9980;51.020;7.772;2023-04-12T08:06:24;95881.00;;;12.00
19666;BMP180;9980;51.020;7.772;2023-04-12T08:08:56;95872.00;;;12.00
19666;BMP180;9980;51.020;7.772;2023-04-12T08:11:22;95868.00;;;12.00
19666;BMP180;9980;51.020;7.772;2023-04-12T08:13:48;95872.00;;;12.10
19666;BMP180;9980;51.020;7.772;2023-04-12T08:16:14;95854.00;;;12.10
19666;BMP180;9980;51.020;7.772;2023-04-12T08:18:41;95887.00;;;12.10
19666;BMP180;9980;51.020;7.772;2023-04-12T08:21:07;95864.00;;;12.20
19666;BMP180;9980;51.020;7.772;2023-04-12T08:23:33;95870.00;;;12.10
19666;BMP180;9980;51.020;7.772;2023-04-12T08:25:59;95870.00;;;12.10
19666;BMP180;9980;51.020;7.772;2023-04-12T08:28:29;95863.00;;;12.20
19666;BMP180;9980;51.020;7.772;2023-04-12T08:30:56;95871.00;;;12.20
19666;BMP180;9980;51.020;7.772;2023-04-12T08:33:22;95866.00;;;12.20
19666;BMP180;9980;51.020;7.772;2023-04-12T08:35:48;95858.00;;;12.20
19666;BMP180;9980;51.020;7.772;2023-04-12T08:38:15;95845.00;;;12.30
19666;BMP180;9980;51.020;7.772;2023-04-12T08:40:42;95844.00;;;12.30
19666;BMP180;9980;51.020;7.772;2023-04-12T08:43:11;95841.00;;;12.40
19666;BMP180;9980;51.020;7.772;2023-04-12T08:45:37;95844.00;;;12.40
19666;BMP180;9980;51.020;7.772;2023-04-12T08:48:04;95811.00;;;12.50
19666;BMP180;9980;51.020;7.772;2023-04-12T08:50:31;95827.00;;;12.50
19666;BMP180;9980;51.020;7.772;2023-04-12T08:52:58;95823.00;;;12.60
19666;BMP180;9980;51.020;7.772;2023-04-12T08:55:25;95824.00;;;12.70
19666;BMP180;9980;51.020;7.772;2023-04-12T08:57:54;95817.00;;;12.70
19666;BMP180;9980;51.020;7.772;2023-04-12T09:00:22;95825.00;;;12.80
19666;BMP180;9980;51.020;7.772;2023-04-12T09:02:48;95821.00;;;12.80
19666;BMP180;9980;51.020;7.772;2023-04-12T09:05:15;95819.00;;;12.90
19666;BMP180;9980;51.020;7.772;2023-04-12T09:07:41;95836.00;;;12.90
19666;BMP180;9980;51.020;7.772;2023-04-12T09:10:08;95815.00;;;12.90
19666;BMP180;9980;51.020;7.772;2023-04-12T09:12:34;95811.00;;;12.90
19666;BMP180;9980;51.020;7.772;2023-04-12T09:15:07;95818.00;;;12.90
19666;BMP180;9980;51.020;7.772;2023-04-12T09:17:35;95797.00;;;13.00
19666;BMP180;9980;51.020;7.772;2023-04-12T09:20:02;95808.00;;;13.00
19666;BMP180;9980;51.020;7.772;2023-04-12T09:22:37;95810.00;;;13.10
19666;BMP180;9980;51.020;7.772;2023-04-12T09:25:05;95798.00;;;13.10
19666;BMP180;9980;51.020;7.772;2023-04-12T09:27:52;95803.00;;;13.20
19666;BMP180;9980;51.020;7.772;2023-04-12T09:30:19;95801.00;;;13.20
19666;BMP180;9980;51.020;7.772;2023-04-12T09:32:46;95803.00;;;13.30
19666;BMP180;9980;51.020;7.772;2023-04-12T09:35:15;95812.00;;;13.30
19666;BMP180;9980;51.020;7.772;2023-04-12T09:37:42;95803.00;;;13.30
19666;BMP180;9980;51.020;7.772;2023-04-12T09:40:09;95794.00;;;13.40
19666;BMP180;9980;51.020;7.772;2023-04-12T09:42:51;95771.00;;;13.40
19666;BMP180;9980;51.020;7.772;2023-04-12T09:45:21;95775.00;;;13.50
19666;BMP180;9980;51.020;7.772;2023-04-12T09:47:49;95763.00;;;13.50
19666;BMP180;9980;51.020;7.772;2023-04-12T09:50:27;95784.00;;;13.50
19666;BMP180;9980;51.020;7.772;2023-04-12T09:52:59;95781.00;;;13.60
19666;BMP180;9980;51.020;7.772;2023-04-12T09:55:28;95786.00;;;13.70
19666;BMP180;9980;51.020;7.772;2023-04-12T09:57:55;95769.00;;;13.70
19666;BMP180;9980;51.020;7.772;2023-04-12T10:00:23;95764.00;;;13.70
19666;BMP180;9980;51.020;7.772;2023-04-12T10:02:54;95762.00;;;13.80
19666;BMP180;9980;51.020;7.772;2023-04-12T10:05:22;95763.00;;;13.80
19666;BMP180;9980;51.020;7.772;2023-04-12T10:07:51;95774.00;;;13.90
19666;BMP180;9980;51.020;7.772;2023-04-12T10:10:19;95764.00;;;13.90
19666;BMP180;9980;51.020;7.772;2023-04-12T10:12:48;95771.00;;;14.00
19666;BMP180;9980;51.020;7.772;2023-04-12T10:15:15;95772.00;;;14.00
19666;BMP180;9980;51.020;7.772;2023-04-12T10:17:52;95777.00;;;14.10
19666;BMP180;9980;51.020;7.772;2023-04-12T10:20:21;95778.00;;;14.10
19666;BMP180;9980;51.020;7.772;2023-04-12T10:22:51;95772.00;;;14.10
19666;BMP180;9980;51.020;7.772;2023-04-12T10:25:24;95765.00;;;14.10
19666;BMP180;9980;51.020;7.772;2023-04-12T10:27:52;95773.00;;;14.10
19666;BMP180;9980;51.020;7.772;2023-04-12T10:30:30;95767.00;;;14.20
19666;BMP180;9980;51.020;7.772;2023-04-12T10:38:23;95748.00;;;14.20
19666;BMP180;9980;51.020;7.772;2023-04-12T10:41:13;95757.00;;;14.20
19666;BMP180;9980;51.020;7.772;2023-04-12T10:43:50;95747.00;;;14.20
19666;BMP180;9980;51.020;7.772;2023-04-12T10:49:15;95734.00;;;14.20
19666;BMP180;9980;51.020;7.772;2023-04-12T10:52:12;95740.00;;;14.30
19666;BMP180;9980;51.020;7.772;2023-04-12T10:54:39;95735.00;;;14.30
19666;BMP180;9980;51.020;7.772;2023-04-12T10:57:39;95732.00;;;14.30
19666;BMP180;9980;51.020;7.772;2023-04-12T11:00:06;95726.00;;;14.40
19666;BMP180;9980;51.020;7.772;2023-04-12T11:02:33;95731.00;;;14.50
19666;BMP180;9980;51.020;7.772;2023-04-12T11:05:09;95729.00;;;14.50
19666;BMP180;9980;51.020;7.772;2023-04-12T11:07:59;95737.00;;;14.60
19666;BMP180;9980;51.020;7.772;2023-04-12T11:10:45;95727.00;;;14.60
19666;BMP180;9980;51.020;7.772;2023-04-12T11:13:18;95716.00;;;14.60
19666;BMP180;9980;51.020;7.772;2023-04-12T11:15:45;95732.00;;;14.70
19666;BMP180;9980;51.020;7.772;2023-04-12T11:18:11;95731.00;;;14.70
19666;BMP180;9980;51.020;7.772;2023-04-12T11:20:38;95722.00;;;14.70
19666;BMP180;9980;51.020;7.772;2023-04-12T11:23:05;95719.00;;;14.80
19666;BMP180;9980;51.020;7.772;2023-04-12T11:25:33;95718.00;;;14.80
19666;BMP180;9980;51.020;7.772;2023-04-12T11:28:00;95724.00;;;14.80
19666;BMP180;9980;51.020;7.772;2023-04-12T11:30:28;95710.00;;;14.80
19666;BMP180;9980;51.020;7.772;2023-04-12T11:32:54;95719.00;;;14.90
19666;BMP180;9980;51.020;7.772;2023-04-12T11:35:21;95710.00;;;14.90
19666;BMP180;9980;51.020;7.772;2023-04-12T11:37:54;95717.00;;;14.90
19666;BMP180;9980;51.020;7.772;2023-04-12T11:40:23;95736.00;;;15.00
19666;BMP180;9980;51.020;7.772;2023-04-12T11:42:50;95729.00;;;15.00
19666;BMP180;9980;51.020;7.772;2023-04-12T11:45:20;95735.00;;;14.90
19666;BMP180;9980;51.020;7.772;2023-04-12T11:47:46;95734.00;;;15.00
19666;BMP180;9980;51.020;7.772;2023-04-12T11:50:26;95727.00;;;15.00
19666;BMP180;9980;51.020;7.772;2023-04-12T11:52:52;95723.00;;;15.00
19666;BMP180;9980;51.020;7.772;2023-04-12T11:55:19;95700.00;;;15.00
19666;BMP180;9980;51.020;7.772;2023-04-12T11:57:52;95710.00;;;15.00
19666;BMP180;9980;51.020;7.772;2023-04-12T12:00:21;95715.00;;;15.10
19666;BMP180;9980;51.020;7.772;2023-04-12T12:02:49;95714.00;;;15.20
19666;BMP180;9980;51.020;7.772;2023-04-12T12:05:33;95700.00;;;15.30
19666;BMP180;9980;51.020;7.772;2023-04-12T12:08:02;95698.00;;;15.40
19666;BMP180;9980;51.020;7.772;2023-04-12T12:10:36;95716.00;;;15.40
19666;BMP180;9980;51.020;7.772;2023-04-12T12:13:23;95710.00;;;15.50
19666;BMP180;9980;51.020;7.772;2023-04-12T12:15:52;95719.00;;;15.60
19666;BMP180;9980;51.020;7.772;2023-04-12T12:18:24;95709.00;;;15.60
19666;BMP180;9980;51.020;7.772;2023-04-12T12:20:52;95711.00;;;15.60
19666;BMP180;9980;51.020;7.772;2023-04-12T12:23:31;95691.00;;;15.60
19666;BMP180;9980;51.020;7.772;2023-04-12T12:26:02;95695.00;;;15.60
19666;BMP180;9980;51.020;7.772;2023-04-12T12:28:52;95700.00;;;15.70
19666;BMP180;9980;51.020;7.772;2023-04-12T12:31:21;95697.00;;;15.70
19666;BMP180;9980;51.020;7.772;2023-04-12T12:33:48;95701.00;;;15.70
19666;BMP180;9980;51.020;7.772;2023-04-12T12:36:18;95705.00;;;15.70
19666;BMP180;9980;51.020;7.772;2023-04-12T12:38:51;95703.00;;;15.60
19666;BMP180;9980;51.020;7.772;2023-04-12T12:41:23;95698.00;;;15.60
19666;BMP180;9980;51.020;7.772;2023-04-12T12:43:51;95697.00;;;15.60
19666;BMP180;9980;51.020;7.772;2023-04-12T12:46:19;95703.00;;;15.60
19666;BMP180;9980;51.020;7.772;2023-04-12T12:48:47;95688.00;;;15.60
19666;BMP180;9980;51.020;7.772;2023-04-12T12:51:14;95687.00;;;15.70
19666;BMP180;9980;51.020;7.772;2023-04-12T12:53:45;95689.00;;;15.70
19666;BMP180;9980;51.020;7.772;2023-04-12T12:56:13;95683.00;;;15.70
19666;BMP180;9980;51.020;7.772;2023-04-12T12:58:40;95696.00;;;15.70
19666;BMP180;9980;51.020;7.772;2023-04-12T13:01:07;95711.00;;;15.70
19666;BMP180;9980;51.020;7.772;2023-04-12T13:03:34;95710.00;;;15.70
19666;BMP180;9980;51.020;7.772;2023-04-12T13:06:00;95699.00;;;15.70
19666;BMP180;9980;51.020;7.772;2023-04-12T13:08:27;95715.00;;;15.60
19666;BMP180;9980;51.020;7.772;2023-04-12T13:10:54;95710.00;;;15.60
19666;BMP180;9980;51.020;7.772;2023-04-12T13:13:20;95716.00;;;15.50
19666;BMP180;9980;51.020;7.772;2023-04-12T13:15:46;95724.00;;;15.50
19666;BMP180;9980;51.020;7.772;2023-04-12T13:18:13;95719.00;;;15.50
19666;BMP180;9980;51.020;7.772;2023-04-12T13:20:42;95705.00;;;15.50
19666;BMP180;9980;51.020;7.772;2023-04-12T13:23:08;95703.00;;;15.60
19666;BMP180;9980;51.020;7.772;2023-04-12T13:25:34;95698.00;;;15.70
19666;BMP180;9980;51.020;7.772;2023-04-12T13:28:01;95707.00;;;15.70
19666;BMP180;9980;51.020;7.772;2023-04-12T13:30:27;95706.00;;;15.80
19666;BMP180;9980;51.020;7.772;2023-04-12T13:32:53;95733.00;;;15.90
19666;BMP180;9980;51.020;7.772;2023-04-12T13:35:20;95718.00;;;15.90
19666;BMP180;9980;51.020;7.772;2023-04-12T13:37:46;95719.00;;;16.00
19666;BMP180;9980;51.020;7.772;2023-04-12T13:40:12;95742.00;;;16.00
19666;BMP180;9980;51.020;7.772;2023-04-12T13:42:39;95753.00;;;16.10
19666;BMP180;9980;51.020;7.772;2023-04-12T13:45:07;95732.00;;;16.10
19666;BMP180;9980;51.020;7.772;2023-04-12T13:47:33;95743.00;;;16.20
19666;BMP180;9980;51.020;7.772;2023-04-12T13:50:00;95738.00;;;16.20
19666;BMP180;9980;51.020;7.772;2023-04-12T13:52:26;95755.00;;;16.20
19666;BMP180;9980;51.020;7.772;2023-04-12T13:54:53;95742.00;;;16.30
19666;BMP180;9980;51.020;7.772;2023-04-12T13:57:19;95740.00;;;16.30
19666;BMP180;9980;51.020;7.772;2023-04-12T13:59:45;95745.00;;;16.30
19666;BMP180;9980;51.020;7.772;2023-04-12T14:02:11;95726.00;;;16.40
19666;BMP180;9980;51.020;7.772;2023-04-12T14:04:50;95731.00;;;16.50
19666;BMP180;9980;51.020;7.772;2023-04-12T14:07:17;95728.00;;;16.70
19666;BMP180;9980;51.020;7.772;2023-04-12T14:09:44;95725.00;;;16.80
19666;BMP180;9980;51.020;7.772;2023-04-12T14:12:10;95736.00;;;16.90
19666;BMP180;9980;51.020;7.772;2023-04-12T14:14:37;95707.00;;;16.90
19666;BMP180;9980;51.020;7.772;2023-04-12T14:17:03;95721.00;;;16.90
19666;BMP180;9980;51.020;7.772;2023-04-12T14:19:29;95700.00;;;17.00
19666;BMP180;9980;51.020;7.772;2023-04-12T14:21:55;95700.00;;;16.90
19666;BMP180;9980;51.020;7.772;2023-04-12T14:24:22;95693.00;;;16.90
19666;BMP180;9980;51.020;7.772;2023-04-12T14:26:49;95693.00;;;17.00
19666;BMP180;9980;51.020;7.772;2023-04-12T14:29:15;95711.00;;;17.00
19666;BMP180;9980;51.020;7.772;2023-04-12T14:31:42;95695.00;;;17.10
19666;BMP180;9980;51.020;7.772;2023-04-12T14:34:08;95693.00;;;17.10
19666;BMP180;9980;51.020;7.772;2023-04-12T14:36:36;95707.00;;;17.10
19666;BMP180;9980;51.020;7.772;2023-04-12T14:39:02;95703.00;;;17.10
19666;BMP180;9980;51.020;7.772;2023-04-12T14:41:30;95694.00;;;17.10
19666;BMP180;9980;51.020;7.772;2023-04-12T14:43:58;95704.00;;;17.20
19666;BMP180;9980;51.020;7.772;2023-04-12T14:46:25;95708.00;;;17.20
19666;BMP180;9980;51.020;7.772;2023-04-12T14:48:55;95704.00;;;17.20
19666;BMP180;9980;51.020;7.772;2023-04-12T14:51:24;95703.00;;;17.30